Aviation Digital Data Service (ADDS)

Output produced by TAFs form (2036 UTC 31 October 2014)
found at http://aviationweather.gov/adds/tafs/
 
KGUP 311741Z 3118/0118 14011KT P6SM SCT150 BKN200 
     FM312000 19013G22KT P6SM SCT150 BKN200 
     FM312300 18011KT P6SM VCSH SCT070 SCT150 
     FM010600 19009KT P6SM SCT050 BKN110 
     FM011700 21013G23KT P6SM FEW050 SCT200